createdAt,value
2019-03-23T00:01:19.570Z,6.83
2019-03-23T00:03:49.618Z,5.70
2019-03-23T00:06:30.212Z,8.13
2019-03-23T00:08:50.039Z,7.43
2019-03-23T00:11:20.057Z,5.53
2019-03-23T00:13:50.104Z,7.53
2019-03-23T00:16:20.123Z,5.53
2019-03-23T00:18:50.165Z,8.27
2019-03-23T00:21:20.519Z,6.43
2019-03-23T00:23:50.573Z,6.40
2019-03-23T00:26:20.958Z,7.87
2019-03-23T00:28:51.012Z,8.03
2019-03-23T00:31:21.398Z,6.90
2019-03-23T00:33:51.741Z,5.73
2019-03-23T00:36:21.775Z,6.40
2019-03-23T00:38:51.809Z,7.93
2019-03-23T00:41:21.863Z,6.57
2019-03-23T00:43:51.896Z,7.77
2019-03-23T00:46:21.921Z,7.07
2019-03-23T00:48:51.975Z,8.53
2019-03-23T00:51:22.010Z,9.07
2019-03-23T00:53:52.045Z,9.90
2019-03-23T00:56:22.371Z,15.00
2019-03-23T00:58:52.408Z,14.73
2019-03-23T01:01:22.441Z,14.37
2019-03-23T01:03:52.870Z,15.43
2019-03-23T01:06:22.899Z,19.73
2019-03-23T01:08:52.951Z,13.73
2019-03-23T01:11:22.989Z,14.83
2019-03-23T01:13:53.039Z,15.87
2019-03-23T01:16:23.081Z,15.63
2019-03-23T01:18:53.136Z,16.27
2019-03-23T01:21:23.186Z,19.53
2019-03-23T01:23:53.507Z,14.90
2019-03-23T01:26:23.528Z,18.43
2019-03-23T01:28:53.589Z,18.47
2019-03-23T01:31:23.927Z,19.23
2019-03-23T01:33:54.011Z,17.50
2019-03-23T01:36:24.040Z,17.40
2019-03-23T01:38:54.402Z,19.13
2019-03-23T01:41:24.547Z,18.57
2019-03-23T01:43:54.917Z,20.37
2019-03-23T01:46:24.965Z,16.87
2019-03-23T01:48:55.019Z,18.27
2019-03-23T01:51:25.373Z,21.27
2019-03-23T01:53:55.411Z,23.40
2019-03-23T01:56:25.476Z,23.40
2019-03-23T01:58:55.511Z,21.87
2019-03-23T02:01:25.555Z,22.83
2019-03-23T02:03:55.617Z,23.80
2019-03-23T02:06:25.666Z,28.67
2019-03-23T02:08:55.689Z,24.70
2019-03-23T02:11:25.732Z,24.20
2019-03-23T02:13:55.760Z,26.50
2019-03-23T02:16:25.822Z,24.37
2019-03-23T02:18:55.852Z,20.83
2019-03-23T02:21:25.894Z,22.40
2019-03-23T02:23:56.181Z,23.33
2019-03-23T02:26:26.266Z,21.43
2019-03-23T02:28:56.312Z,22.23
2019-03-23T02:31:26.355Z,21.97
2019-03-23T02:33:56.430Z,19.40
2019-03-23T02:36:26.459Z,17.93
2019-03-23T02:38:56.488Z,16.30
2019-03-23T02:41:26.532Z,17.37
2019-03-23T02:43:56.933Z,15.37
2019-03-23T02:46:26.995Z,14.77
2019-03-23T02:48:57.032Z,13.80
2019-03-23T02:51:27.102Z,15.80
2019-03-23T02:53:57.140Z,17.37
2019-03-23T02:56:27.175Z,13.53
2019-03-23T02:58:57.211Z,13.70
2019-03-23T03:01:27.541Z,14.20
2019-03-23T03:03:57.554Z,12.43
2019-03-23T03:06:27.617Z,11.20
2019-03-23T03:08:57.638Z,9.57
2019-03-23T03:11:28.006Z,11.57
2019-03-23T03:13:58.047Z,12.50
2019-03-23T03:16:28.078Z,10.33
2019-03-23T03:18:58.148Z,10.57
2019-03-23T03:21:28.196Z,10.10
2019-03-23T03:23:58.251Z,8.27
2019-03-23T03:26:28.273Z,8.03
2019-03-23T03:28:58.413Z,8.00
2019-03-23T03:31:28.440Z,8.57
2019-03-23T03:33:58.782Z,7.10
2019-03-23T03:36:30.220Z,8.33
2019-03-23T03:38:58.856Z,7.97
2019-03-23T03:41:28.884Z,6.97
2019-03-23T03:43:58.911Z,8.80
2019-03-23T03:46:28.968Z,6.47
2019-03-23T03:49:11.755Z,6.73
2019-03-23T03:51:29.301Z,8.70
2019-03-23T03:53:59.322Z,6.53
2019-03-23T03:56:29.356Z,5.40
2019-03-23T03:58:59.396Z,7.70
2019-03-23T04:01:29.409Z,7.97
2019-03-23T04:03:59.454Z,6.93
2019-03-23T04:06:29.513Z,5.83
2019-03-23T04:08:59.801Z,5.67
2019-03-23T04:11:30.131Z,4.87
2019-03-23T04:14:00.157Z,5.70
2019-03-23T04:16:30.266Z,5.63
2019-03-23T04:19:00.596Z,8.90
2019-03-23T04:21:30.906Z,6.07
2019-03-23T04:24:00.954Z,7.47
2019-03-23T04:26:30.959Z,6.53
2019-03-23T04:29:00.979Z,6.07
2019-03-23T04:31:31.021Z,9.13
2019-03-23T04:34:01.075Z,6.87
2019-03-23T04:36:31.405Z,6.60
2019-03-23T04:39:01.429Z,8.77
2019-03-23T04:41:31.477Z,7.67
2019-03-23T04:44:01.500Z,8.43
2019-03-23T04:46:31.541Z,6.00
2019-03-23T04:49:01.571Z,6.40
2019-03-23T04:51:31.653Z,9.60
2019-03-23T04:54:01.705Z,6.53
2019-03-23T04:56:31.736Z,5.37
2019-03-23T04:59:02.003Z,5.33
2019-03-23T05:01:32.085Z,5.27
2019-03-23T05:04:02.109Z,6.27
2019-03-23T05:06:32.545Z,8.40
2019-03-23T05:09:02.551Z,6.43
2019-03-23T05:11:32.599Z,6.10
2019-03-23T05:14:02.890Z,5.43
2019-03-23T05:19:12.285Z,5.07
2019-03-23T05:21:42.301Z,6.07
2019-03-23T05:24:12.327Z,6.00
2019-03-23T05:26:42.366Z,5.33
2019-03-23T05:29:12.389Z,6.30
2019-03-23T05:31:42.433Z,5.67
2019-03-23T05:34:12.482Z,4.80
2019-03-23T05:36:42.531Z,6.77
2019-03-23T05:39:12.553Z,5.50
2019-03-23T05:41:42.614Z,8.17
2019-03-23T05:44:12.636Z,9.13
2019-03-23T05:46:42.671Z,6.97
2019-03-23T05:49:12.981Z,8.17
2019-03-23T05:51:43.031Z,5.40
2019-03-23T05:54:13.022Z,6.10
2019-03-23T05:56:43.365Z,7.83
2019-03-23T05:59:13.384Z,5.53
2019-03-23T06:01:43.418Z,3.53
2019-03-23T06:04:13.463Z,5.70
2019-03-23T06:06:43.474Z,4.77
2019-03-23T06:09:13.854Z,10.23
2019-03-23T06:11:44.174Z,7.40
2019-03-23T06:16:54.167Z,9.43
2019-03-23T06:19:24.463Z,7.03
2019-03-23T06:21:54.525Z,8.30
2019-03-23T06:24:24.555Z,6.60
2019-03-23T06:26:54.917Z,6.30
2019-03-23T06:29:25.250Z,8.93
2019-03-23T06:31:55.303Z,8.00
2019-03-23T06:34:25.578Z,11.27
2019-03-23T06:36:55.628Z,9.50
2019-03-23T06:39:26.018Z,5.63
2019-03-23T06:41:56.456Z,9.10
2019-03-23T06:47:05.865Z,14.10
2019-03-23T06:49:35.886Z,11.20
2019-03-23T06:52:05.936Z,6.83
2019-03-23T06:54:36.000Z,6.50
2019-03-23T06:57:06.032Z,11.83
2019-03-23T06:59:36.395Z,10.17
2019-03-23T07:04:46.200Z,8.37
2019-03-23T07:07:17.083Z,8.87
2019-03-23T07:09:47.118Z,6.83
2019-03-23T07:12:17.157Z,6.47
2019-03-23T07:14:47.234Z,8.30
2019-03-23T07:17:17.262Z,7.17
2019-03-23T07:19:47.305Z,7.83
2019-03-23T07:22:17.389Z,5.93
2019-03-23T07:24:47.430Z,11.10
2019-03-23T07:27:17.481Z,10.77
2019-03-23T07:29:47.514Z,9.37
2019-03-23T07:32:17.554Z,8.60
2019-03-23T07:34:47.594Z,7.60
2019-03-23T07:37:17.628Z,12.13
2019-03-23T07:39:47.667Z,7.67
2019-03-23T07:42:18.051Z,8.10
2019-03-23T07:44:48.332Z,6.63
2019-03-23T07:47:18.359Z,7.17
2019-03-23T07:49:48.413Z,9.57
2019-03-23T07:52:18.440Z,6.60
2019-03-23T07:54:48.850Z,7.30
2019-03-23T07:57:19.244Z,7.37
2019-03-23T07:59:49.277Z,8.20
2019-03-23T08:02:19.681Z,9.07
2019-03-23T08:07:29.433Z,8.27
2019-03-23T08:09:59.461Z,9.13
2019-03-23T08:12:29.520Z,12.27
2019-03-23T08:14:59.550Z,15.53
2019-03-23T08:17:29.582Z,13.27
2019-03-23T08:19:59.637Z,9.67
2019-03-23T08:22:29.939Z,11.03
2019-03-23T08:24:59.998Z,17.13
2019-03-23T08:27:30.037Z,9.77
2019-03-23T08:30:00.416Z,10.07
2019-03-23T08:32:30.459Z,10.20
2019-03-23T08:35:00.840Z,12.03
2019-03-23T08:37:30.977Z,11.17
2019-03-23T08:40:00.908Z,9.13
2019-03-23T08:42:31.282Z,10.43
2019-03-23T08:45:01.343Z,9.20
2019-03-23T08:47:31.378Z,8.27
2019-03-23T08:50:01.429Z,8.83
2019-03-23T08:52:31.863Z,8.30
2019-03-23T08:55:02.186Z,8.17
2019-03-23T08:57:32.219Z,7.90
2019-03-23T09:00:02.255Z,9.45
2019-03-23T09:02:32.286Z,8.08
2019-03-23T09:05:02.338Z,9.20
2019-03-23T09:07:32.405Z,6.78
2019-03-23T09:10:02.807Z,8.58
2019-03-23T09:12:33.122Z,9.07
2019-03-23T09:15:03.179Z,10.55
2019-03-23T09:17:33.217Z,9.05
2019-03-23T09:20:03.254Z,8.38
2019-03-23T09:22:33.306Z,11.95
2019-03-23T09:25:03.705Z,9.70
2019-03-23T09:27:33.728Z,10.82
2019-03-23T09:30:03.779Z,39.50
2019-03-23T09:32:34.166Z,11.73
2019-03-23T09:35:04.221Z,13.15
2019-03-23T09:37:38.272Z,13.57
2019-03-23T09:40:10.836Z,13.10
2019-03-23T09:45:14.353Z,13.32
2019-03-23T09:47:44.082Z,14.23
2019-03-23T09:50:14.161Z,13.68
2019-03-23T09:52:44.539Z,17.02
2019-03-23T09:55:14.970Z,15.03
2019-03-23T09:57:45.007Z,14.15
2019-03-23T10:00:15.086Z,19.42
2019-03-23T10:02:45.135Z,17.48
2019-03-23T10:05:15.191Z,19.90
2019-03-23T10:07:45.240Z,17.57
2019-03-23T10:10:21.734Z,16.75
2019-03-23T10:12:45.918Z,15.40
2019-03-23T10:15:15.986Z,20.00
2019-03-23T10:17:46.025Z,18.23
2019-03-23T10:20:16.100Z,18.48
2019-03-23T10:22:46.168Z,18.70
2019-03-23T10:25:16.228Z,16.95
2019-03-23T10:27:46.276Z,19.77
2019-03-23T10:30:16.616Z,18.37
2019-03-23T10:32:46.663Z,17.65
2019-03-23T10:35:17.065Z,17.80
2019-03-23T10:37:47.134Z,21.42
2019-03-23T10:40:17.498Z,18.80
2019-03-23T10:42:47.571Z,17.32
2019-03-23T10:45:17.608Z,19.45
2019-03-23T10:47:47.741Z,21.17
2019-03-23T10:50:18.088Z,18.75
2019-03-23T10:55:28.533Z,22.70
2019-03-23T10:57:58.570Z,24.12
2019-03-23T11:00:28.626Z,24.77
2019-03-23T11:02:58.989Z,23.30
2019-03-23T11:05:29.037Z,24.12
2019-03-23T11:07:59.457Z,28.85
2019-03-23T11:10:29.886Z,31.75
2019-03-23T11:13:00.063Z,51.60
2019-03-23T11:15:30.307Z,23.62
2019-03-23T11:18:00.358Z,31.97
2019-03-23T11:20:30.421Z,40.40
2019-03-23T11:23:00.801Z,25.25
2019-03-23T11:25:30.865Z,52.35
2019-03-23T11:28:01.161Z,27.58
2019-03-23T11:30:31.224Z,23.38
2019-03-23T11:33:01.534Z,26.90
2019-03-23T11:35:31.578Z,25.50
2019-03-23T11:40:41.113Z,23.32
2019-03-23T11:43:11.441Z,22.02
2019-03-23T11:45:42.328Z,26.97
2019-03-23T11:48:12.276Z,27.42
2019-03-23T11:50:42.329Z,25.43
2019-03-23T11:53:12.748Z,24.35
2019-03-23T11:55:42.792Z,23.02
2019-03-23T11:58:13.185Z,21.23
2019-03-23T12:00:43.231Z,22.13
2019-03-23T12:03:13.287Z,21.90
2019-03-23T12:05:43.336Z,20.37
2019-03-23T12:08:13.383Z,22.75
2019-03-23T12:10:43.456Z,24.25
2019-03-23T12:13:13.502Z,25.02
2019-03-23T12:15:43.886Z,24.10
2019-03-23T12:18:14.201Z,24.23
2019-03-23T12:20:44.532Z,21.90
2019-03-23T12:23:14.997Z,25.92
2019-03-23T12:25:45.389Z,25.70
2019-03-23T12:28:15.454Z,24.35
2019-03-23T12:30:45.488Z,21.52
2019-03-23T12:33:15.554Z,23.73
2019-03-23T12:35:45.573Z,25.48
2019-03-23T12:40:55.016Z,24.57
2019-03-23T12:43:25.058Z,27.70
2019-03-23T12:48:34.488Z,28.12
2019-03-23T12:51:04.538Z,26.37
2019-03-23T12:53:34.596Z,23.52
2019-03-23T12:58:44.367Z,25.77
2019-03-23T13:01:14.690Z,28.38
2019-03-23T13:03:44.755Z,26.27
2019-03-23T13:06:14.805Z,25.90
2019-03-23T13:08:45.147Z,29.02
2019-03-23T13:11:23.098Z,25.52
2019-03-23T13:13:45.644Z,22.10
2019-03-23T13:16:16.005Z,25.40
2019-03-23T13:18:46.090Z,26.35
2019-03-23T13:21:16.491Z,24.95
2019-03-23T13:23:46.564Z,28.73
2019-03-23T13:26:16.603Z,28.25
2019-03-23T13:28:46.671Z,25.88
2019-03-23T13:31:16.727Z,33.48
2019-03-23T13:33:46.794Z,27.80
2019-03-23T13:36:17.155Z,27.58
2019-03-23T13:38:47.195Z,27.27
2019-03-23T13:41:17.242Z,29.77
2019-03-23T13:43:47.468Z,31.68
2019-03-23T13:46:17.513Z,28.62
2019-03-23T13:48:47.587Z,27.98
2019-03-23T13:51:17.661Z,29.85
2019-03-23T13:53:47.714Z,31.35
2019-03-23T13:56:18.205Z,32.48
2019-03-23T13:58:48.148Z,32.60
2019-03-23T14:01:18.224Z,28.83
2019-03-23T14:03:48.275Z,26.35
2019-03-23T14:06:18.323Z,29.30
2019-03-23T14:08:48.382Z,34.03
2019-03-23T14:11:18.717Z,31.50
2019-03-23T14:13:48.776Z,35.10
2019-03-23T14:16:18.836Z,29.50
2019-03-23T14:18:49.175Z,32.10
2019-03-23T14:21:19.586Z,28.17
2019-03-23T14:23:49.629Z,30.92
2019-03-23T14:26:19.694Z,32.38
2019-03-23T14:28:49.745Z,34.75
2019-03-23T14:31:19.791Z,35.98
2019-03-23T14:33:49.844Z,35.70
2019-03-23T14:36:19.898Z,46.13
2019-03-23T14:38:49.924Z,49.03
2019-03-23T14:41:19.987Z,48.30
2019-03-23T14:43:50.291Z,42.40
2019-03-23T14:46:20.345Z,43.68
2019-03-23T14:48:50.702Z,42.23
2019-03-23T14:51:21.018Z,46.83
2019-03-23T14:53:51.326Z,41.75
2019-03-23T14:56:21.374Z,43.38
2019-03-23T14:58:51.431Z,39.83
2019-03-23T15:01:21.478Z,39.73
2019-03-23T15:03:51.519Z,40.05
2019-03-23T15:06:21.584Z,37.93
2019-03-23T15:08:51.626Z,44.05
2019-03-23T15:11:21.695Z,56.80
2019-03-23T15:13:51.735Z,57.75
2019-03-23T15:16:22.117Z,54.05
2019-03-23T15:18:52.515Z,55.30
2019-03-23T15:21:22.595Z,57.38
2019-03-23T15:23:52.945Z,74.17
2019-03-23T15:26:23.281Z,70.85
2019-03-23T15:28:53.322Z,69.80
2019-03-23T15:31:23.744Z,68.83
2019-03-23T15:33:54.037Z,67.75
2019-03-23T15:36:24.095Z,71.42
2019-03-23T15:38:54.485Z,78.25
2019-03-23T15:44:04.463Z,69.65
2019-03-23T15:49:14.250Z,65.67
2019-03-23T15:51:44.623Z,66.02
2019-03-23T15:54:14.710Z,64.03
2019-03-23T15:59:24.142Z,62.62
2019-03-23T16:01:54.521Z,65.60
2019-03-23T16:04:24.578Z,61.35
2019-03-23T16:06:56.754Z,67.95
2019-03-23T16:09:24.981Z,62.15
2019-03-23T16:11:55.034Z,66.92
2019-03-23T16:14:25.072Z,65.40
2019-03-23T16:16:55.130Z,67.30
2019-03-23T16:19:25.213Z,71.90
2019-03-23T16:21:55.237Z,75.30
2019-03-23T16:24:25.305Z,69.77
2019-03-23T16:26:55.352Z,75.70
2019-03-23T16:29:25.401Z,74.17
2019-03-23T16:31:55.442Z,68.55
2019-03-23T16:34:25.751Z,74.10
2019-03-23T16:36:55.814Z,76.65
2019-03-23T16:39:25.839Z,73.30
2019-03-23T16:41:55.902Z,73.67
2019-03-23T16:44:25.942Z,75.37
2019-03-23T16:46:56.011Z,77.95
2019-03-23T16:49:26.101Z,79.65
2019-03-23T16:51:56.198Z,78.47
2019-03-23T16:54:26.209Z,75.07
2019-03-23T16:56:56.636Z,78.60
2019-03-23T16:59:26.704Z,73.55
2019-03-23T17:01:57.007Z,75.27
2019-03-23T17:07:07.116Z,66.80
2019-03-23T17:09:37.149Z,73.62
2019-03-23T17:12:07.234Z,67.85
2019-03-23T17:14:37.261Z,64.65
2019-03-23T17:17:07.288Z,67.87
2019-03-23T17:22:17.464Z,63.95
2019-03-23T17:24:47.491Z,65.62
2019-03-23T17:27:17.550Z,57.48
2019-03-23T17:29:47.913Z,58.28
2019-03-23T17:32:17.947Z,58.73
2019-03-23T17:34:48.004Z,61.87
2019-03-23T17:37:18.370Z,58.53
2019-03-23T17:39:48.417Z,55.43
2019-03-23T17:42:18.457Z,56.10
2019-03-23T17:47:27.864Z,51.87
2019-03-23T17:49:57.909Z,50.60
2019-03-23T17:52:27.942Z,50.03
2019-03-23T17:57:37.364Z,53.67
2019-03-23T18:02:46.506Z,49.40
2019-03-23T18:05:16.553Z,47.20
2019-03-23T18:07:46.588Z,51.37
2019-03-23T18:10:16.643Z,50.27
2019-03-23T18:12:46.944Z,51.00
2019-03-23T18:15:17.294Z,47.30
2019-03-23T18:17:47.688Z,49.30
2019-03-23T18:20:17.740Z,49.37
2019-03-23T18:22:47.774Z,45.97
2019-03-23T18:25:17.819Z,43.87
2019-03-23T18:27:47.866Z,46.00
2019-03-23T18:30:42.234Z,43.93
2019-03-23T18:33:12.273Z,45.60
2019-03-23T18:35:42.676Z,44.43
2019-03-23T18:38:12.999Z,40.07
2019-03-23T18:40:43.060Z,40.17
2019-03-23T18:43:13.094Z,43.37
2019-03-23T18:48:22.560Z,35.90
2019-03-23T18:50:52.644Z,46.23
2019-03-23T18:53:24.049Z,42.63
2019-03-23T18:55:52.757Z,37.23
2019-03-23T18:58:22.782Z,44.00
2019-03-23T19:00:52.872Z,38.03
2019-03-23T19:03:23.210Z,40.43
2019-03-23T19:05:53.253Z,40.33
2019-03-23T19:08:23.288Z,36.90
2019-03-23T19:10:53.645Z,40.60
2019-03-23T19:13:23.690Z,42.17
2019-03-23T19:15:53.730Z,42.30
2019-03-23T19:18:23.757Z,41.20
2019-03-23T19:20:54.039Z,41.87
2019-03-23T19:23:24.068Z,42.37
2019-03-23T19:25:54.124Z,38.90
2019-03-23T19:28:24.155Z,41.33
2019-03-23T19:30:54.203Z,43.27
2019-03-23T19:33:24.514Z,44.50
2019-03-23T19:38:34.473Z,44.90
2019-03-23T19:41:05.670Z,42.17
2019-03-23T19:46:14.180Z,45.30
2019-03-23T19:48:44.567Z,41.27
2019-03-23T19:51:14.626Z,42.17
2019-03-23T19:53:44.661Z,41.33
2019-03-23T19:56:14.692Z,46.53
2019-03-23T19:58:44.743Z,39.17
2019-03-23T20:01:14.820Z,40.07
2019-03-23T20:03:44.833Z,44.93
2019-03-23T20:06:15.230Z,45.13
2019-03-23T20:08:45.632Z,45.20
2019-03-23T20:11:15.696Z,43.33
2019-03-23T20:13:46.148Z,40.63
2019-03-23T20:16:16.211Z,44.83
2019-03-23T20:18:46.584Z,44.40
2019-03-23T20:21:16.621Z,39.60
2019-03-23T20:23:46.666Z,40.10
2019-03-23T20:26:16.720Z,44.13
2019-03-23T20:31:26.400Z,39.67
2019-03-23T20:33:56.733Z,45.13
2019-03-23T20:36:26.782Z,40.27
2019-03-23T20:38:56.818Z,42.00
2019-03-23T20:41:26.882Z,37.83
2019-03-23T20:43:57.212Z,41.87
2019-03-23T20:46:27.248Z,41.27
2019-03-23T20:48:57.295Z,36.83
2019-03-23T20:51:27.343Z,41.87
2019-03-23T20:53:57.377Z,41.57
2019-03-23T20:56:27.445Z,41.57
2019-03-23T20:58:57.733Z,38.93
2019-03-23T21:01:27.808Z,40.13
2019-03-23T21:03:57.830Z,40.70
2019-03-23T21:06:27.900Z,42.53
2019-03-23T21:08:57.924Z,38.60
2019-03-23T21:11:27.969Z,39.23
2019-03-23T21:13:58.019Z,41.57
2019-03-23T21:16:28.055Z,41.57
2019-03-23T21:18:58.092Z,39.70
2019-03-23T21:21:28.461Z,40.33
2019-03-23T21:23:58.504Z,38.70
2019-03-23T21:26:28.580Z,44.07
2019-03-23T21:28:58.616Z,41.83
2019-03-23T21:31:28.666Z,40.90
2019-03-23T21:33:58.703Z,42.40
2019-03-23T21:36:28.810Z,43.80
2019-03-23T21:38:59.175Z,45.70
2019-03-23T21:41:29.234Z,38.70
2019-03-23T21:46:39.267Z,41.33
2019-03-23T21:49:09.296Z,45.03
2019-03-23T21:51:39.348Z,40.63
2019-03-23T21:54:09.397Z,41.40
2019-03-23T21:56:39.738Z,38.67
2019-03-23T21:59:09.773Z,40.17
2019-03-23T22:01:39.855Z,41.37
2019-03-23T22:04:11.358Z,42.37
2019-03-23T22:06:39.936Z,45.30
2019-03-23T22:09:10.326Z,36.77
2019-03-23T22:11:40.373Z,39.10
2019-03-23T22:14:10.780Z,44.17
2019-03-23T22:16:41.202Z,40.97
2019-03-23T22:19:11.610Z,37.03
2019-03-23T22:21:41.667Z,39.23
2019-03-23T22:24:12.081Z,43.90
2019-03-23T22:26:42.084Z,39.17
2019-03-23T22:29:12.135Z,37.67
2019-03-23T22:31:42.171Z,39.97
2019-03-23T22:34:12.241Z,40.67
2019-03-23T22:36:42.289Z,40.53
2019-03-23T22:39:12.343Z,38.90
2019-03-23T22:41:42.368Z,42.80
2019-03-23T22:44:12.418Z,39.97
2019-03-23T22:46:42.453Z,34.87
2019-03-23T22:49:12.809Z,41.60
2019-03-23T22:51:42.850Z,37.77
2019-03-23T22:54:12.897Z,37.50
2019-03-23T22:59:22.307Z,41.30
2019-03-23T23:01:52.345Z,42.70
2019-03-23T23:04:22.399Z,37.30
2019-03-23T23:06:52.426Z,41.73
2019-03-23T23:09:22.483Z,44.97
2019-03-23T23:11:52.787Z,40.97
2019-03-23T23:14:22.835Z,41.17
2019-03-23T23:16:52.865Z,48.53
2019-03-23T23:19:22.924Z,48.50
2019-03-23T23:21:52.975Z,46.57
2019-03-23T23:24:23.044Z,44.07
2019-03-23T23:26:53.386Z,45.07
2019-03-23T23:29:23.441Z,44.37
2019-03-23T23:31:53.828Z,50.07
2019-03-23T23:34:23.877Z,55.93
2019-03-23T23:36:53.911Z,49.37
2019-03-23T23:39:23.995Z,50.33
2019-03-23T23:41:54.025Z,55.67
2019-03-23T23:44:24.429Z,49.50
2019-03-23T23:46:54.496Z,54.23
2019-03-23T23:49:24.545Z,54.47
2019-03-23T23:51:54.588Z,54.63
2019-03-23T23:54:24.629Z,53.63
2019-03-23T23:56:55.009Z,59.33
2019-03-23T23:59:25.066Z,61.97
